Time;durP1;ratioP1;P1;durP2;ratioP2;P2;SDS_P1;SDS_P2;PMS_P1;PMS_P2;Temp;Humidity;BMP_temperature;BMP_pressure;BME280_temperature;BME280_humidity;BME280_pressure;Samples;Min_cycle;Max_cycle;Signal;HPM_P1;HPM_P2
2022/12/04 00:00:00;;;;;;;;;;;;;;;-0.73;65.58;102116.78;5046962;28;19909;-75
2022/12/04 00:02:25;;;;;;;;;;;;;;;-0.76;65.74;102109.84;5061673;28;19909;-75
2022/12/04 00:04:51;;;;;;;;;;;;;;;-0.74;65.89;102108.28;5046665;28;19967;-74
2022/12/04 00:07:16;;;;;;;;;;;;;;;-0.70;65.97;102106.81;5046975;28;19948;-75
2022/12/04 00:09:41;;;;;;;;;;;;;;;-0.64;65.79;102109.78;5046759;28;19962;-74
2022/12/04 00:12:06;;;;;;;;;;;;;;;-0.69;65.85;102106.94;5046849;28;19916;-75
2022/12/04 00:14:31;;;;;;;;;;;;;;;-0.70;65.83;102114.47;5045291;28;19916;-75
2022/12/04 00:16:57;;;;;;;;;;;;;;;-0.71;66.05;102113.59;5046380;28;19909;-74
2022/12/04 00:19:22;;;;;;;;;;;;;;;-0.66;66.04;102118.97;5046636;28;19931;-74
2022/12/04 00:21:48;;;;;;;;;;;;;;;-0.65;65.76;102113.97;5061595;28;19969;-75
2022/12/04 00:24:13;;;;;;;;;;;;;;;-0.68;66.01;102116.34;5061640;28;20357;-75
2022/12/04 00:26:38;;;;;;;;;;;;;;;-0.70;66.03;102124.69;5046394;28;20266;-75
2022/12/04 00:29:03;;;;;;;;;;;;;;;-0.66;66.06;102131.75;5044908;28;20381;-74
2022/12/04 00:31:29;;;;;;;;;;;;;;;-0.68;65.83;102135.84;5046182;28;19909;-76
2022/12/04 00:33:54;;;;;;;;;;;;;;;-0.69;65.88;102127.34;5046207;28;19931;-75
2022/12/04 00:36:21;;;;;;;;;;;;;;;-0.69;65.81;102134.09;5061342;28;19909;-75
2022/12/04 00:38:47;;;;;;;;;;;;;;;-0.70;65.88;102124.69;5046247;28;19909;-75
2022/12/04 00:41:14;;;;;;;;;;;;;;;-0.68;65.94;102118.00;5046148;28;19995;-76
2022/12/04 00:43:40;;;;;;;;;;;;;;;-0.54;65.18;102117.22;5061425;28;19973;-76
2022/12/04 00:46:05;;;;;;;;;;;;;;;-0.71;64.82;102107.59;5044452;28;19908;-74
2022/12/04 00:48:30;;;;;;;;;;;;;;;-0.80;65.02;102107.88;5046002;28;19928;-75
2022/12/04 00:51:00;;;;;;;;;;;;;;;-0.79;64.91;102119.84;5045741;28;19916;-75
2022/12/04 00:53:25;;;;;;;;;;;;;;;-0.83;64.96;102128.94;5045946;28;19916;-75
2022/12/04 00:55:50;;;;;;;;;;;;;;;-0.82;64.68;102120.53;5045877;28;19913;-75
2022/12/04 00:58:15;;;;;;;;;;;;;;;-0.88;64.46;102123.53;5045797;28;19951;-75
2022/12/04 01:00:41;;;;;;;;;;;;;;;-0.92;64.43;102124.13;5045875;28;19936;-75
2022/12/04 01:03:07;;;;;;;;;;;;;;;-0.90;64.58;102112.38;5045798;28;19909;-75
2022/12/04 01:05:37;;;;;;;;;;;;;;;-0.89;64.60;102109.03;5045618;28;19908;-75
2022/12/04 01:08:02;;;;;;;;;;;;;;;-0.89;64.29;102118.34;5045059;28;19909;-75
2022/12/04 01:10:27;;;;;;;;;;;;;;;-0.83;63.89;102116.19;5044216;28;19909;-76
2022/12/04 01:12:53;;;;;;;;;;;;;;;-0.92;64.12;102113.03;5044270;28;19916;-75
2022/12/04 01:15:18;;;;;;;;;;;;;;;-0.90;64.15;102108.94;5044656;28;19920;-73
2022/12/04 01:17:44;;;;;;;;;;;;;;;-0.84;64.07;102117.00;5045085;28;19909;-75
2022/12/04 01:20:11;;;;;;;;;;;;;;;-0.83;63.80;102108.53;5060490;28;19909;-75
2022/12/04 01:22:36;;;;;;;;;;;;;;;-0.87;63.92;102101.50;5045633;28;19999;-75
2022/12/04 01:25:01;;;;;;;;;;;;;;;-0.90;64.11;102111.50;5044205;28;19909;-74
2022/12/04 01:27:26;;;;;;;;;;;;;;;-0.88;64.08;102110.78;5045494;28;19909;-74
2022/12/04 01:29:52;;;;;;;;;;;;;;;-0.91;64.32;102104.63;5043964;28;19917;-74
2022/12/04 01:32:17;;;;;;;;;;;;;;;-0.90;64.34;102097.06;5045426;28;19920;-74
2022/12/04 01:34:42;;;;;;;;;;;;;;;-0.94;64.49;102101.88;5045419;28;19947;-74
2022/12/04 01:37:07;;;;;;;;;;;;;;;-0.83;64.42;102100.03;5045278;28;19916;-75
2022/12/04 01:39:35;;;;;;;;;;;;;;;-0.91;64.66;102107.19;5046614;28;19908;-74
2022/12/04 01:42:00;;;;;;;;;;;;;;;-0.91;64.89;102105.50;5049494;28;19913;-74
2022/12/04 01:44:25;;;;;;;;;;;;;;;-0.89;64.80;102109.03;5049426;28;19931;-75
2022/12/04 01:46:52;;;;;;;;;;;;;;;-0.89;64.91;102109.03;5049562;28;19913;-74
2022/12/04 01:49:20;;;;;;;;;;;;;;;-0.90;65.12;102106.38;5049510;28;19913;-74
2022/12/04 01:51:48;;;;;;;;;;;;;;;-0.89;65.09;102109.03;5049571;28;19909;-74
2022/12/04 01:54:17;;;;;;;;;;;;;;;-0.82;65.08;102089.94;5049248;28;19932;-75
2022/12/04 01:56:46;;;;;;;;;;;;;;;-0.88;65.23;102102.28;5049155;28;20331;-74
2022/12/04 01:59:14;;;;;;;;;;;;;;;-0.92;65.39;102111.38;5049426;28;20464;-74
2022/12/04 02:01:42;;;;;;;;;;;;;;;-0.93;65.47;102112.19;5064661;28;19909;-75
2022/12/04 02:04:08;;;;;;;;;;;;;;;-0.91;65.55;102107.19;5064390;28;19909;-76
2022/12/04 02:06:33;;;;;;;;;;;;;;;-0.88;65.65;102115.03;5048199;28;20012;-76
2022/12/04 02:08:58;;;;;;;;;;;;;;;-0.87;65.68;102111.69;5063718;28;19913;-75
2022/12/04 02:11:33;;;;;;;;;;;;;;;-0.90;65.85;102112.38;5063211;28;19916;-75
2022/12/04 02:14:04;;;;;;;;;;;;;;;-0.89;66.00;102111.59;5048044;28;20364;-75
2022/12/04 02:16:29;;;;;;;;;;;;;;;-0.79;65.94;102117.28;5064307;28;19913;-75
2022/12/04 02:19:06;;;;;;;;;;;;;;;-0.86;66.32;102117.69;5048824;28;19916;-75
2022/12/04 02:21:36;;;;;;;;;;;;;;;-0.83;66.40;102112.78;5048444;28;19921;-75
2022/12/04 02:24:20;;;;;;;;;;;;;;;-0.88;66.54;102104.84;5048787;28;19919;-75
2022/12/04 02:26:48;;;;;;;;;;;;;;;-0.87;66.62;102106.59;5048433;28;19909;-75
2022/12/04 02:29:13;;;;;;;;;;;;;;;-0.81;66.70;102099.34;5048669;28;19913;-75
2022/12/04 02:31:49;;;;;;;;;;;;;;;-0.85;66.78;102094.84;5064163;28;19909;-75
2022/12/04 02:34:20;;;;;;;;;;;;;;;-0.85;66.94;102101.59;5048601;28;19944;-76
2022/12/04 02:36:49;;;;;;;;;;;;;;;-0.83;66.90;102094.94;5063700;28;19980;-75
2022/12/04 02:39:33;;;;;;;;;;;;;;;-0.85;67.01;102097.38;5048505;28;19909;-75
2022/12/04 02:42:27;;;;;;;;;;;;;;;-0.83;67.18;102092.38;5063802;28;19909;-75
2022/12/04 02:44:56;;;;;;;;;;;;;;;-0.82;67.04;102087.38;5043357;28;19915;-75
2022/12/04 02:47:22;;;;;;;;;;;;;;;-0.85;67.19;102091.38;5048301;28;19920;-75
2022/12/04 02:50:08;;;;;;;;;;;;;;;-0.79;67.11;102082.47;5048294;28;19914;-75
2022/12/04 02:52:35;;;;;;;;;;;;;;;-0.85;67.36;102089.72;5047180;28;20343;-75
2022/12/04 02:55:06;;;;;;;;;;;;;;;-0.82;67.29;102084.84;5048148;28;20387;-75
2022/12/04 02:57:33;;;;;;;;;;;;;;;-0.80;67.47;102090.03;5048256;28;19936;-75
2022/12/04 03:00:00;;;;;;;;;;;;;;;-0.76;67.28;102099.63;5048244;28;19980;-75
2022/12/04 03:02:33;;;;;;;;;;;;;;;-0.74;67.21;102098.09;5048250;28;19909;-74
2022/12/04 03:05:02;;;;;;;;;;;;;;;-0.77;67.36;102100.44;5048061;28;19909;-73
2022/12/04 03:07:35;;;;;;;;;;;;;;;-0.78;67.56;102096.09;5048301;28;19940;-75
2022/12/04 03:10:04;;;;;;;;;;;;;;;-0.78;67.56;102091.88;5047883;28;19913;-75
2022/12/04 03:12:42;;;;;;;;;;;;;;;-0.78;67.64;102096.09;5046587;28;19909;-75
2022/12/04 03:15:10;;;;;;;;;;;;;;;-0.76;67.64;102097.97;5047780;28;19909;-75
2022/12/04 03:17:40;;;;;;;;;;;;;;;-0.78;67.79;102091.00;5047845;28;19909;-75
2022/12/04 03:20:08;;;;;;;;;;;;;;;-0.76;67.78;102090.34;5047457;28;19909;-75
2022/12/04 03:22:35;;;;;;;;;;;;;;;-0.81;68.05;102084.03;5047749;28;19909;-75
2022/12/04 03:25:02;;;;;;;;;;;;;;;-0.79;68.03;102084.13;5047314;28;20199;-76
2022/12/04 03:27:27;;;;;;;;;;;;;;;-0.72;68.04;102090.53;5046792;28;19909;-75
2022/12/04 03:29:57;;;;;;;;;;;;;;;-0.77;68.10;102091.09;5046264;28;19920;-74
2022/12/04 03:32:27;;;;;;;;;;;;;;;-0.65;67.94;102085.03;5047217;28;19909;-74
2022/12/04 03:34:56;;;;;;;;;;;;;;;-0.73;68.32;102096.41;5047612;28;19909;-75
2022/12/04 03:37:25;;;;;;;;;;;;;;;-0.75;68.31;102084.44;5047227;28;19913;-74
2022/12/04 03:40:05;;;;;;;;;;;;;;;-0.73;68.47;102087.09;5047536;28;19920;-73
2022/12/04 03:42:43;;;;;;;;;;;;;;;-0.67;68.39;102094.28;5047336;28;19909;-74
2022/12/04 03:45:19;;;;;;;;;;;;;;;-0.63;68.13;102093.69;5047377;28;19920;-74
2022/12/04 03:47:55;;;;;;;;;;;;;;;-0.70;68.42;102086.41;5047226;28;19908;-74
2022/12/04 03:50:28;;;;;;;;;;;;;;;-0.71;68.55;102094.84;5046956;28;19913;-75
2022/12/04 03:52:57;;;;;;;;;;;;;;;-0.69;68.56;102094.16;5047118;28;19985;-75
2022/12/04 03:55:25;;;;;;;;;;;;;;;-0.72;68.77;102091.41;5062278;28;19913;-75
2022/12/04 03:57:51;;;;;;;;;;;;;;;-0.72;68.69;102086.31;5047017;28;19974;-75
2022/12/04 04:00:18;;;;;;;;;;;;;;;-0.70;68.75;102089.84;5047210;28;19915;-75
2022/12/04 04:02:46;;;;;;;;;;;;;;;-0.65;68.61;102082.47;5046396;28;19909;-75
2022/12/04 04:05:12;;;;;;;;;;;;;;;-0.67;68.72;102096.81;5046627;28;19920;-75
2022/12/04 04:07:43;;;;;;;;;;;;;;;-0.61;68.85;102096.31;5046953;28;19920;-77
2022/12/04 04:10:13;;;;;;;;;;;;;;;-0.65;68.85;102097.78;5046762;28;19960;-75
2022/12/04 04:12:42;;;;;;;;;;;;;;;-0.68;69.07;102087.38;5046940;28;19909;-75
2022/12/04 04:26:19;;;;;;;;;;;;;;;-0.59;69.46;102087.97;5046408;28;20331;-75
2022/12/04 04:28:44;;;;;;;;;;;;;;;-0.63;69.57;102088.56;5046294;28;19916;-74
2022/12/04 04:31:13;;;;;;;;;;;;;;;-0.56;69.54;102079.66;5046838;28;19920;-75
2022/12/04 04:33:45;;;;;;;;;;;;;;;-0.56;69.65;102088.16;5046433;28;19958;-75
2022/12/04 04:36:17;;;;;;;;;;;;;;;-0.56;69.61;102079.66;5046120;28;20280;-76
2022/12/04 04:38:46;;;;;;;;;;;;;;;-0.57;69.73;102075.31;5046198;28;19913;-75
2022/12/04 04:41:25;;;;;;;;;;;;;;;-0.57;69.82;102082.97;5046260;28;19913;-75
2022/12/04 04:43:58;;;;;;;;;;;;;;;-0.53;69.74;102075.63;5046088;28;19909;-76
2022/12/04 04:46:36;;;;;;;;;;;;;;;-0.50;69.54;102068.16;5046074;28;19920;-75
2022/12/04 04:49:03;;;;;;;;;;;;;;;-0.56;69.87;102075.41;5045896;28;19959;-75
2022/12/04 04:51:29;;;;;;;;;;;;;;;-0.50;69.69;102068.16;5045808;28;19909;-75
2022/12/04 04:53:57;;;;;;;;;;;;;;;-0.54;69.94;102076.41;5061339;28;19909;-75
2022/12/04 04:56:22;;;;;;;;;;;;;;;-0.46;69.72;102069.25;5045839;28;20369;-76
2022/12/04 04:58:47;;;;;;;;;;;;;;;-0.46;69.73;102068.38;5061236;28;19959;-75
2022/12/04 05:01:14;;;;;;;;;;;;;;;-0.47;69.85;102067.47;5045754;28;19909;-75
2022/12/04 05:03:40;;;;;;;;;;;;;;;-0.45;69.60;102055.72;5045898;28;19909;-74
2022/12/04 05:06:05;;;;;;;;;;;;;;;-0.44;69.85;102065.13;5060978;28;19959;-75
2022/12/04 05:08:31;;;;;;;;;;;;;;;-0.44;69.79;102066.78;5045601;28;19913;-74
2022/12/04 05:10:56;;;;;;;;;;;;;;;-0.44;69.97;102066.78;5045786;28;19909;-74
2022/12/04 05:13:21;;;;;;;;;;;;;;;-0.43;70.05;102063.47;5045355;28;19913;-74
2022/12/04 05:16:01;;;;;;;;;;;;;;;-0.42;69.97;102072.88;5045137;28;19916;-74
2022/12/04 05:18:26;;;;;;;;;;;;;;;-0.39;69.85;102073.97;5045727;28;19916;-74
2022/12/04 05:20:51;;;;;;;;;;;;;;;-0.40;69.93;102066.22;5060507;28;19917;-74
2022/12/04 05:23:17;;;;;;;;;;;;;;;-0.39;70.16;102075.63;5045663;28;20007;-74
2022/12/04 05:25:42;;;;;;;;;;;;;;;-0.35;70.14;102063.94;5045393;28;19909;-74
2022/12/04 05:28:07;;;;;;;;;;;;;;;-0.35;70.37;102072.47;5045395;28;19909;-74
2022/12/04 05:30:32;;;;;;;;;;;;;;;-0.33;70.29;102059.81;5045432;28;19909;-74
2022/12/04 05:32:58;;;;;;;;;;;;;;;-0.29;70.16;102064.34;5045579;28;19983;-75
2022/12/04 05:35:23;;;;;;;;;;;;;;;-0.28;70.41;102072.09;5045196;28;19963;-74
2022/12/04 05:37:48;;;;;;;;;;;;;;;-0.27;70.51;102065.28;5045569;28;19911;-74
2022/12/04 05:40:13;;;;;;;;;;;;;;;-0.23;70.39;102064.72;5060731;28;19916;-75
2022/12/04 05:42:39;;;;;;;;;;;;;;;-0.20;70.44;102066.56;5045354;28;19972;-74
2022/12/04 05:45:04;;;;;;;;;;;;;;;-0.26;70.53;102055.19;5045391;28;19995;-75
2022/12/04 05:47:29;;;;;;;;;;;;;;;-0.23;70.59;102056.16;5060659;28;19913;-74
2022/12/04 05:49:55;;;;;;;;;;;;;;;-0.23;70.65;102059.63;5045179;28;19913;-74
2022/12/04 05:52:20;;;;;;;;;;;;;;;-0.19;70.62;102060.69;5045041;28;19909;-75
2022/12/04 05:54:45;;;;;;;;;;;;;;;-0.11;70.58;102063.72;5045296;28;20293;-74
2022/12/04 05:57:10;;;;;;;;;;;;;;;-0.14;70.61;102072.06;5045122;28;19920;-74
2022/12/04 05:59:35;;;;;;;;;;;;;;;-0.12;70.49;102067.94;5045178;28;19959;-74
2022/12/04 06:02:01;;;;;;;;;;;;;;;-0.15;70.72;102071.19;5043949;28;19940;-73
2022/12/04 06:04:26;;;;;;;;;;;;;;;-0.16;70.84;102074.50;5043761;28;19909;-73
2022/12/04 06:06:52;;;;;;;;;;;;;;;-0.13;70.90;102072.16;5045001;28;19913;-74
2022/12/04 06:09:17;;;;;;;;;;;;;;;-0.10;70.80;102076.59;5045024;28;19928;-74
2022/12/04 06:11:42;;;;;;;;;;;;;;;-0.16;70.94;102079.63;5045118;28;19909;-75
2022/12/04 06:14:09;;;;;;;;;;;;;;;-0.08;70.81;102071.56;5045115;28;19909;-75
2022/12/04 06:16:36;;;;;;;;;;;;;;;-0.05;70.80;102087.94;5060373;28;20323;-75
2022/12/04 06:19:06;;;;;;;;;;;;;;;-0.07;71.05;102075.88;5044968;28;19959;-73
2022/12/04 06:21:33;;;;;;;;;;;;;;;-0.04;70.93;102074.41;5044567;28;20202;-74
2022/12/04 06:23:58;;;;;;;;;;;;;;;-0.02;70.93;102084.72;5045059;28;19913;-74
2022/12/04 06:26:23;;;;;;;;;;;;;;;0.01;70.87;102082.34;5047174;28;20258;-74
2022/12/04 06:28:51;;;;;;;;;;;;;;;0.01;70.87;102086.56;5048652;28;19913;-73
2022/12/04 06:31:17;;;;;;;;;;;;;;;0.02;70.90;102085.81;5048583;28;20277;-73
2022/12/04 06:33:43;;;;;;;;;;;;;;;-0.03;71.04;102076.16;5048609;28;19963;-74
2022/12/04 06:36:13;;;;;;;;;;;;;;;-0.01;71.07;102089.94;5048185;28;19916;-73
2022/12/04 06:38:39;;;;;;;;;;;;;;;0.02;71.02;102093.47;5048564;28;19909;-73
2022/12/04 06:41:05;;;;;;;;;;;;;;;-0.03;70.98;102078.72;5048441;28;19963;-73
2022/12/04 06:43:30;;;;;;;;;;;;;;;-0.01;71.08;102091.59;5048533;28;19999;-73
2022/12/04 06:46:00;;;;;;;;;;;;;;;0.03;70.90;102090.13;5048332;28;19935;-75
2022/12/04 06:48:27;;;;;;;;;;;;;;;0.04;70.96;102099.53;5063767;28;19917;-74
2022/12/04 06:51:03;;;;;;;;;;;;;;;0.02;70.98;102096.88;5063472;28;19909;-75
2022/12/04 06:53:29;;;;;;;;;;;;;;;0.01;70.93;102095.13;5048222;28;19932;-74
2022/12/04 06:55:54;;;;;;;;;;;;;;;0.01;71.06;102091.69;5048144;28;19909;-74
2022/12/04 06:58:19;;;;;;;;;;;;;;;-0.02;70.88;102102.59;5048008;28;19909;-75
2022/12/04 07:00:45;;;;;;;;;;;;;;;0.04;70.75;102096.97;5048072;28;20475;-75
2022/12/04 07:03:10;;;;;;;;;;;;;;;0.03;70.70;102105.44;5048208;28;19912;-76
2022/12/04 07:05:35;;;;;;;;;;;;;;;0.03;70.86;102092.66;5048172;28;19909;-74
2022/12/04 07:08:00;;;;;;;;;;;;;;;0.08;70.76;102093.84;5048225;28;19927;-73
2022/12/04 07:10:25;;;;;;;;;;;;;;;0.09;70.67;102100.72;5047950;28;19943;-73
2022/12/04 07:12:51;;;;;;;;;;;;;;;0.04;70.76;102097.88;5048054;28;19919;-73
2022/12/04 07:15:16;;;;;;;;;;;;;;;0.05;70.96;102098.78;5048038;28;19909;-74
2022/12/04 07:17:41;;;;;;;;;;;;;;;0.05;70.92;102097.06;5048039;28;19980;-73
2022/12/04 07:20:07;;;;;;;;;;;;;;;0.04;70.87;102107.19;5047632;28;19944;-73
2022/12/04 07:22:32;;;;;;;;;;;;;;;0.07;70.92;102108.28;5047816;28;19916;-74
2022/12/04 07:24:57;;;;;;;;;;;;;;;0.05;70.87;102104.72;5063152;28;19932;-74
2022/12/04 07:27:22;;;;;;;;;;;;;;;0.07;71.01;102092.06;5046663;28;19909;-75
2022/12/04 07:29:50;;;;;;;;;;;;;;;0.08;70.97;102098.97;5046234;28;19913;-74
2022/12/04 07:32:15;;;;;;;;;;;;;;;0.12;70.76;102100.91;5062569;28;19909;-73
2022/12/04 07:34:40;;;;;;;;;;;;;;;0.08;70.88;102092.16;5063621;28;19952;-74
2022/12/04 07:37:05;;;;;;;;;;;;;;;0.11;70.83;102117.88;5046462;28;19909;-71
2022/12/04 07:39:31;;;;;;;;;;;;;;;0.14;70.70;102108.66;5045997;28;19940;-73
2022/12/04 07:41:56;;;;;;;;;;;;;;;0.15;70.62;102111.31;5047086;28;19909;-73
2022/12/04 07:44:21;;;;;;;;;;;;;;;0.09;70.81;102105.81;5047318;28;19968;-72
2022/12/04 07:46:46;;;;;;;;;;;;;;;0.16;70.39;102107.94;5046881;28;19920;-72
2022/12/04 07:49:12;;;;;;;;;;;;;;;0.15;70.45;102111.31;5045815;28;19925;-72
2022/12/04 07:51:37;;;;;;;;;;;;;;;0.18;70.34;102108.03;5046960;28;19909;-72
2022/12/04 07:54:03;;;;;;;;;;;;;;;0.16;70.32;102110.50;5062206;28;19916;-72
2022/12/04 07:56:28;;;;;;;;;;;;;;;0.19;70.42;102113.25;5046844;28;20293;-71
2022/12/04 07:58:53;;;;;;;;;;;;;;;0.16;70.46;102112.19;5047147;28;19967;-72
2022/12/04 08:01:20;;;;;;;;;;;;;;;0.21;70.38;102111.69;5046839;28;19931;-72
2022/12/04 08:03:46;;;;;;;;;;;;;;;0.27;69.90;102111.19;5046895;28;19909;-70
2022/12/04 08:06:11;;;;;;;;;;;;;;;0.20;69.99;102107.38;5061943;28;19913;-72
2022/12/04 08:08:36;;;;;;;;;;;;;;;0.17;69.90;102108.84;5046705;28;19965;-71
2022/12/04 08:11:09;;;;;;;;;;;;;;;0.15;70.09;102113.88;5046451;28;19936;-71
2022/12/04 08:13:34;;;;;;;;;;;;;;;0.20;69.63;102115.03;5046490;28;19909;-72
2022/12/04 08:16:00;;;;;;;;;;;;;;;0.33;69.60;102120.91;5061722;28;19908;-73
2022/12/04 08:18:26;;;;;;;;;;;;;;;0.24;69.42;102129.75;5046694;28;19909;-71
2022/12/04 08:20:51;;;;;;;;;;;;;;;0.19;69.54;102117.50;5044930;28;19975;-73
2022/12/04 08:23:16;;;;;;;;;;;;;;;0.27;69.51;102117.97;5046323;28;19909;-71
2022/12/04 08:25:41;;;;;;;;;;;;;;;0.29;69.18;102131.72;5046328;28;19913;-71
2022/12/04 08:28:07;;;;;;;;;;;;;;;0.25;69.26;102133.19;5046244;28;19909;-73
2022/12/04 08:30:33;;;;;;;;;;;;;;;0.23;69.37;102122.00;5061580;28;19915;-72
2022/12/04 08:32:58;;;;;;;;;;;;;;;0.29;68.97;102124.94;5046414;28;20308;-71
2022/12/04 08:35:23;;;;;;;;;;;;;;;0.24;69.23;102126.31;5046122;28;19973;-73
2022/12/04 08:37:48;;;;;;;;;;;;;;;0.31;69.15;102119.91;5045992;28;19924;-71
2022/12/04 08:40:14;;;;;;;;;;;;;;;0.24;69.27;102111.88;5046214;28;19920;-72
2022/12/04 08:42:39;;;;;;;;;;;;;;;0.25;69.23;102128.09;5046224;28;19909;-71
2022/12/04 08:45:04;;;;;;;;;;;;;;;0.28;69.29;102130.84;5046174;28;19909;-73
2022/12/04 08:47:30;;;;;;;;;;;;;;;0.28;69.21;102109.50;5045870;28;20337;-72
2022/12/04 08:49:55;;;;;;;;;;;;;;;0.24;69.29;102122.09;5045726;28;19920;-71
2022/12/04 08:52:20;;;;;;;;;;;;;;;0.38;68.88;102137.41;5046070;28;19916;-70
2022/12/04 08:54:45;;;;;;;;;;;;;;;0.25;69.05;102130.66;5045892;28;20292;-71
2022/12/04 08:57:11;;;;;;;;;;;;;;;0.27;69.22;102131.63;5045532;28;20353;-72
2022/12/04 08:59:36;;;;;;;;;;;;;;;0.32;69.05;102124.25;5045814;28;19909;-73
2022/12/04 09:02:01;;;;;;;;;;;;;;;0.33;68.95;102120.91;5045663;28;19913;-73
2022/12/04 09:04:26;;;;;;;;;;;;;;;0.40;69.04;102142.59;5044168;28;19948;-75
2022/12/04 09:06:52;;;;;;;;;;;;;;;0.32;69.01;102124.25;5044292;28;19959;-75
2022/12/04 09:09:17;;;;;;;;;;;;;;;0.28;69.32;102124.84;5059513;28;19913;-74
2022/12/04 09:11:43;;;;;;;;;;;;;;;0.34;69.32;102112.44;5043788;28;19959;-75
2022/12/04 09:14:09;;;;;;;;;;;;;;;0.28;69.41;102119.72;5059827;28;19932;-75
2022/12/04 09:16:34;;;;;;;;;;;;;;;0.33;69.22;102123.44;5060306;28;19909;-74
2022/12/04 09:18:59;;;;;;;;;;;;;;;0.32;69.31;102139.59;5060754;28;19917;-74
2022/12/04 09:21:24;;;;;;;;;;;;;;;0.32;69.34;102121.69;5044896;28;19967;-74
2022/12/04 09:23:50;;;;;;;;;;;;;;;0.33;69.23;102128.56;5045470;28;19956;-75
2022/12/04 09:26:23;;;;;;;;;;;;;;;0.32;69.41;102131.91;5045345;28;19909;-79
2022/12/04 09:28:50;;;;;;;;;;;;;;;0.26;69.45;102129.00;5060563;28;19917;-73
2022/12/04 09:31:16;;;;;;;;;;;;;;;0.25;69.68;102133.19;5060726;28;19909;-74
2022/12/04 09:33:42;;;;;;;;;;;;;;;0.26;69.70;102122.19;5044099;28;19920;-74
2022/12/04 09:36:07;;;;;;;;;;;;;;;0.34;69.55;102112.44;5044987;28;19909;-73
2022/12/04 09:38:33;;;;;;;;;;;;;;;0.33;69.63;102124.34;5045288;28;19932;-76
2022/12/04 09:41:07;;;;;;;;;;;;;;;0.36;69.38;102115.97;5060409;28;20012;-75
2022/12/04 09:43:48;;;;;;;;;;;;;;;0.38;69.51;102108.41;5045074;28;19924;-75
2022/12/04 09:46:22;;;;;;;;;;;;;;;0.38;69.34;102122.06;5045087;28;19996;-75
2022/12/04 09:48:48;;;;;;;;;;;;;;;0.35;69.38;102112.53;5045083;28;19913;-74
2022/12/04 09:51:17;;;;;;;;;;;;;;;0.40;69.28;102107.69;5060241;28;19909;-75
2022/12/04 09:53:58;;;;;;;;;;;;;;;0.36;69.54;102126.19;5043728;28;19944;-75
2022/12/04 09:56:26;;;;;;;;;;;;;;;0.42;69.39;102116.34;5044995;28;19909;-76
2022/12/04 09:58:51;;;;;;;;;;;;;;;0.46;68.98;102114.88;5045173;28;19909;-76
2022/12/04 10:01:20;;;;;;;;;;;;;;;0.40;69.30;102122.16;5047211;28;19916;-75
2022/12/04 10:03:45;;;;;;;;;;;;;;;0.45;68.97;102120.75;5064317;28;19909;-77
2022/12/04 10:06:13;;;;;;;;;;;;;;;0.37;69.10;102107.50;5049117;28;19959;-80
2022/12/04 10:08:44;;;;;;;;;;;;;;;0.32;69.31;102111.47;5048198;28;19913;-79
2022/12/04 10:11:32;;;;;;;;;;;;;;;0.41;69.12;102103.47;5049086;28;19908;-76
2022/12/04 10:14:17;;;;;;;;;;;;;;;0.34;69.21;102107.31;5046087;28;19944;-75
2022/12/04 10:16:42;;;;;;;;;;;;;;;0.33;69.41;102113.22;5048885;28;20055;-76
2022/12/04 10:19:15;;;;;;;;;;;;;;;0.34;69.35;102105.66;5048939;28;19909;-76
2022/12/04 10:21:59;;;;;;;;;;;;;;;0.48;68.85;102110.72;5048514;28;19928;-75
2022/12/04 10:24:37;;;;;;;;;;;;;;;0.39;69.12;102112.72;5048905;28;19933;-76
2022/12/04 10:27:08;;;;;;;;;;;;;;;0.36;69.35;102111.75;5048610;28;19992;-77
2022/12/04 10:29:35;;;;;;;;;;;;;;;0.40;69.31;102101.72;5063912;28;19973;-78
2022/12/04 10:32:18;;;;;;;;;;;;;;;0.36;69.33;102098.09;5048672;28;19909;-77
2022/12/04 10:34:44;;;;;;;;;;;;;;;0.42;68.98;102093.34;5049129;28;19909;-78
2022/12/04 10:37:12;;;;;;;;;;;;;;;0.34;69.27;102102.22;5048541;28;19925;-76
2022/12/04 10:39:40;;;;;;;;;;;;;;;0.34;69.42;102099.66;5048488;28;19980;-75
2022/12/04 10:42:13;;;;;;;;;;;;;;;0.36;69.41;102095.53;5048602;28;19916;-76
2022/12/04 10:44:38;;;;;;;;;;;;;;;0.37;69.29;102092.19;5048654;28;19909;-77
2022/12/04 10:47:05;;;;;;;;;;;;;;;0.34;69.47;102089.44;5048385;28;19916;-76
2022/12/04 10:49:34;;;;;;;;;;;;;;;0.35;69.54;102084.41;5048823;28;19913;-77
2022/12/04 10:52:00;;;;;;;;;;;;;;;0.41;69.27;102089.03;5046785;28;20254;-75
2022/12/04 10:54:36;;;;;;;;;;;;;;;0.41;69.12;102089.03;5048202;28;19978;-77
2022/12/04 10:57:03;;;;;;;;;;;;;;;0.41;69.25;102094.16;5048272;28;19909;-78
2022/12/04 10:59:29;;;;;;;;;;;;;;;0.39;69.27;102087.16;5049191;28;19909;-78
2022/12/04 11:01:59;;;;;;;;;;;;;;;0.35;69.33;102089.53;5047945;28;19909;-76
2022/12/04 11:04:25;;;;;;;;;;;;;;;0.44;69.24;102089.22;5048870;28;19939;-77
2022/12/04 11:06:58;;;;;;;;;;;;;;;0.35;69.34;102099.75;5048366;28;20429;-77
2022/12/04 11:09:24;;;;;;;;;;;;;;;0.35;69.24;102084.41;5065740;28;20052;-74
2022/12/04 11:11:49;;;;;;;;;;;;;;;0.34;69.41;102086.88;5045867;28;20320;-74
2022/12/04 11:14:14;;;;;;;;;;;;;;;0.38;69.32;102090.50;5048510;28;19909;-77
2022/12/04 11:16:43;;;;;;;;;;;;;;;0.30;69.47;102082.38;5047160;28;19968;-77
2022/12/04 11:19:18;;;;;;;;;;;;;;;0.30;69.60;102070.50;5047111;28;19909;-76
2022/12/04 11:21:43;;;;;;;;;;;;;;;0.36;69.49;102075.09;5045958;28;19924;-75
2022/12/04 11:24:16;;;;;;;;;;;;;;;0.36;69.72;102090.41;5045321;28;19913;-75
2022/12/04 11:26:41;;;;;;;;;;;;;;;0.45;69.35;102075.66;5047116;28;19909;-77
2022/12/04 11:29:13;;;;;;;;;;;;;;;0.39;69.63;102069.28;5046606;28;19912;-75
2022/12/04 11:31:39;;;;;;;;;;;;;;;0.40;69.52;102084.69;5047154;28;19920;-75
2022/12/04 11:34:07;;;;;;;;;;;;;;;0.52;69.41;102084.56;5047309;28;19909;-76
2022/12/04 11:36:42;;;;;;;;;;;;;;;0.49;69.43;102077.63;5046885;28;19909;-73
2022/12/04 11:39:10;;;;;;;;;;;;;;;0.40;69.85;102083.84;5061622;28;19932;-74
2022/12/04 11:41:35;;;;;;;;;;;;;;;0.34;70.09;102080.09;5047022;28;19909;-74
2022/12/04 11:44:01;;;;;;;;;;;;;;;0.45;69.89;102075.66;5047216;28;19920;-75
2022/12/04 11:46:29;;;;;;;;;;;;;;;0.39;70.02;102079.50;5062224;28;20019;-74
2022/12/04 11:48:56;;;;;;;;;;;;;;;0.35;70.21;102076.75;5046994;28;20385;-75
2022/12/04 11:51:21;;;;;;;;;;;;;;;0.33;70.28;102075.81;5062056;28;19909;-74
2022/12/04 11:53:51;;;;;;;;;;;;;;;0.39;70.21;102072.72;5062192;28;19909;-75
2022/12/04 11:56:22;;;;;;;;;;;;;;;0.34;70.39;102062.22;5046901;28;20008;-75
2022/12/04 11:58:54;;;;;;;;;;;;;;;0.33;70.71;102074.91;5062443;28;19940;-73
2022/12/04 12:01:19;;;;;;;;;;;;;;;0.39;70.41;102069.28;5062462;28;19956;-75
2022/12/04 12:03:44;;;;;;;;;;;;;;;0.48;70.39;102064.72;5062477;28;19916;-76
2022/12/04 12:06:14;;;;;;;;;;;;;;;0.46;70.28;102073.97;5047117;28;19909;-75
2022/12/04 12:08:40;;;;;;;;;;;;;;;0.40;70.72;102074.47;5062193;28;19912;-74
2022/12/04 12:11:23;;;;;;;;;;;;;;;0.34;70.90;102094.53;5047051;28;20440;-75
2022/12/04 12:14:01;;;;;;;;;;;;;;;0.35;70.91;102088.66;5062914;28;19931;-76
2022/12/04 12:16:33;;;;;;;;;;;;;;;0.36;70.97;102067.44;5046314;28;20015;-74
2022/12/04 12:19:17;;;;;;;;;;;;;;;0.41;71.07;102068.59;5061969;28;19916;-74
2022/12/04 12:21:45;;;;;;;;;;;;;;;0.38;71.06;102070.97;5046567;28;19921;-74
2022/12/04 12:24:23;;;;;;;;;;;;;;;0.49;70.79;102067.41;5046642;28;19972;-65
2022/12/04 12:27:09;;;;;;;;;;;;;;;0.45;70.75;102073.09;5046465;28;19932;-74
2022/12/04 12:29:34;;;;;;;;;;;;;;;0.40;71.09;102060.84;5044527;28;19959;-74
2022/12/04 12:32:05;;;;;;;;;;;;;;;0.41;71.20;102072.81;5046422;28;19913;-74
2022/12/04 12:34:33;;;;;;;;;;;;;;;0.36;71.25;102063.22;5046522;28;19944;-74
2022/12/04 12:37:00;;;;;;;;;;;;;;;0.37;71.35;102058.97;5046110;28;19908;-75
2022/12/04 12:39:29;;;;;;;;;;;;;;;0.40;71.27;102055.72;5061827;28;19909;-78
2022/12/04 12:41:57;;;;;;;;;;;;;;;0.40;71.31;102051.47;5061953;28;19909;-75
2022/12/04 12:44:27;;;;;;;;;;;;;;;0.45;71.20;102070.53;5046687;28;20016;-76
2022/12/04 12:46:59;;;;;;;;;;;;;;;0.38;71.27;102050.53;5046333;28;19913;-76
2022/12/04 12:49:36;;;;;;;;;;;;;;;0.35;71.56;102058.00;5060439;28;19913;-79
2022/12/04 12:52:05;;;;;;;;;;;;;;;0.41;71.53;102081.38;5060975;28;19916;-75
2022/12/04 12:54:50;;;;;;;;;;;;;;;0.32;71.76;102047.59;5061150;28;19909;-74